sensor_id;sensor_type;location;lat;lon;timestamp;pressure;altitude;pressure_sealevel;temperature;humidity
3697;BME280;60662;48.810;8.872;2024-02-16T07:28:43;96521.59;;;7.73;87.03
3697;BME280;60662;48.810;8.872;2024-02-16T07:29:45;96524.47;;;7.65;87.12
3697;BME280;60662;48.810;8.872;2024-02-16T07:35:47;96519.75;;;8.24;85.43
3697;BME280;60662;48.810;8.872;2024-02-16T07:36:48;96508.00;;;8.37;84.85
3697;BME280;60662;48.810;8.872;2024-02-16T07:37:50;96530.47;;;8.63;84.37
3697;BME280;60662;48.810;8.872;2024-02-16T07:38:55;96525.13;;;8.66;84.09
3697;BME280;60662;48.810;8.872;2024-02-16T07:39:56;96528.44;;;8.92;83.53
3697;BME280;60662;48.810;8.872;2024-02-16T07:40:58;96528.25;;;9.19;82.56
3697;BME280;60662;48.810;8.872;2024-02-16T07:42:00;96534.72;;;9.52;80.88
3697;BME280;60662;48.810;8.872;2024-02-16T07:43:02;96525.47;;;9.44;80.72
3697;BME280;60662;48.810;8.872;2024-02-16T07:44:04;96521.00;;;9.88;79.27
3697;BME280;60662;48.810;8.872;2024-02-16T07:45:06;96512.47;;;10.05;78.53
3697;BME280;60662;48.810;8.872;2024-02-16T07:46:07;96522.50;;;10.52;77.20
3697;BME280;60662;48.810;8.872;2024-02-16T07:47:09;96526.91;;;10.52;76.96
3697;BME280;60662;48.810;8.872;2024-02-16T07:48:11;96526.69;;;10.75;76.54
3697;BME280;60662;48.810;8.872;2024-02-16T07:49:12;96526.31;;;11.01;75.58
3697;BME280;60662;48.810;8.872;2024-02-16T07:50:19;96526.16;;;11.40;73.97
3697;BME280;60662;48.810;8.872;2024-02-16T07:51:21;96526.81;;;11.79;72.22
3697;BME280;60662;48.810;8.872;2024-02-16T07:52:23;96526.75;;;12.32;71.12
3697;BME280;60662;48.810;8.872;2024-02-16T07:53:24;96526.84;;;12.94;69.32
3697;BME280;60662;48.810;8.872;2024-02-16T07:54:26;96524.91;;;13.44;67.44
3697;BME280;60662;48.810;8.872;2024-02-16T07:55:27;96525.94;;;13.42;65.61
3697;BME280;60662;48.810;8.872;2024-02-16T07:56:29;96532.66;;;13.62;66.17
3697;BME280;60662;48.810;8.872;2024-02-16T07:57:32;96539.19;;;13.99;65.25
3697;BME280;60662;48.810;8.872;2024-02-16T07:58:34;96535.16;;;14.37;64.45
3697;BME280;60662;48.810;8.872;2024-02-16T07:59:35;96533.28;;;14.39;64.13
3697;BME280;60662;48.810;8.872;2024-02-16T08:00:37;96536.88;;;14.24;64.10
3697;BME280;60662;48.810;8.872;2024-02-16T08:01:39;96529.06;;;14.36;63.95
3697;BME280;60662;48.810;8.872;2024-02-16T08:02:42;96522.13;;;14.21;64.32
3697;BME280;60662;48.810;8.872;2024-02-16T08:03:46;96531.69;;;14.36;64.46
3697;BME280;60662;48.810;8.872;2024-02-16T08:04:49;96539.28;;;14.56;63.64
3697;BME280;60662;48.810;8.872;2024-02-16T08:05:51;96536.75;;;14.68;64.07
3697;BME280;60662;48.810;8.872;2024-02-16T08:06:52;96524.44;;;14.83;62.92
3697;BME280;60662;48.810;8.872;2024-02-16T08:07:54;96534.75;;;15.14;62.33
3697;BME280;60662;48.810;8.872;2024-02-16T08:08:57;96524.84;;;15.85;60.06
3697;BME280;60662;48.810;8.872;2024-02-16T08:09:59;96534.19;;;16.54;58.90
3697;BME280;60662;48.810;8.872;2024-02-16T08:11:01;96531.88;;;16.49;57.77
3697;BME280;60662;48.810;8.872;2024-02-16T08:12:04;96536.47;;;16.71;57.27
3697;BME280;60662;48.810;8.872;2024-02-16T08:13:08;96536.44;;;16.34;58.33
3697;BME280;60662;48.810;8.872;2024-02-16T08:14:09;96530.53;;;17.18;57.27
3697;BME280;60662;48.810;8.872;2024-02-16T08:15:11;96537.50;;;16.94;57.82
3697;BME280;60662;48.810;8.872;2024-02-16T08:16:13;96544.41;;;16.71;57.81
3697;BME280;60662;48.810;8.872;2024-02-16T08:17:14;96546.16;;;16.71;57.62
3697;BME280;60662;48.810;8.872;2024-02-16T08:18:20;96542.78;;;16.81;57.69
3697;BME280;60662;48.810;8.872;2024-02-16T08:19:22;96539.59;;;16.39;58.35
3697;BME280;60662;48.810;8.872;2024-02-16T08:20:24;96533.25;;;16.55;57.87
3697;BME280;60662;48.810;8.872;2024-02-16T08:21:26;96539.22;;;15.79;58.75
3697;BME280;60662;48.810;8.872;2024-02-16T08:22:27;96552.59;;;15.36;60.32
3697;BME280;60662;48.810;8.872;2024-02-16T08:23:29;96549.06;;;16.03;59.89
3697;BME280;60662;48.810;8.872;2024-02-16T08:24:35;96556.75;;;16.58;58.73
3697;BME280;60662;48.810;8.872;2024-02-16T08:25:37;96560.06;;;17.23;56.93
3697;BME280;60662;48.810;8.872;2024-02-16T08:26:38;96553.25;;;17.91;55.62
3697;BME280;60662;48.810;8.872;2024-02-16T08:27:40;96555.22;;;17.65;55.42
3697;BME280;60662;48.810;8.872;2024-02-16T08:28:43;96548.94;;;18.37;54.68
3697;BME280;60662;48.810;8.872;2024-02-16T08:29:46;96550.00;;;18.57;53.73
3697;BME280;60662;48.810;8.872;2024-02-16T08:30:47;96551.91;;;18.21;54.40
3697;BME280;60662;48.810;8.872;2024-02-16T08:31:49;96551.66;;;17.77;54.86
3697;BME280;60662;48.810;8.872;2024-02-16T08:32:52;96554.16;;;16.95;56.53
3697;BME280;60662;48.810;8.872;2024-02-16T08:33:54;96552.03;;;16.37;57.68
3697;BME280;60662;48.810;8.872;2024-02-16T08:34:56;96562.66;;;15.97;58.91
3697;BME280;60662;48.810;8.872;2024-02-16T08:36:00;96558.91;;;16.01;58.28
3697;BME280;60662;48.810;8.872;2024-02-16T08:37:01;96550.56;;;16.07;58.52
3697;BME280;60662;48.810;8.872;2024-02-16T08:38:03;96554.84;;;16.60;57.95
3697;BME280;60662;48.810;8.872;2024-02-16T08:39:05;96548.22;;;17.04;56.22
3697;BME280;60662;48.810;8.872;2024-02-16T08:40:07;96565.97;;;17.26;55.93
3697;BME280;60662;48.810;8.872;2024-02-16T08:41:09;96564.84;;;17.42;54.96
3697;BME280;60662;48.810;8.872;2024-02-16T08:42:10;96564.06;;;17.28;54.57
3697;BME280;60662;48.810;8.872;2024-02-16T08:43:15;96562.28;;;16.92;55.55
3697;BME280;60662;48.810;8.872;2024-02-16T08:44:17;96557.84;;;16.29;57.04
3697;BME280;60662;48.810;8.872;2024-02-16T08:45:20;96563.59;;;15.83;58.67
3697;BME280;60662;48.810;8.872;2024-02-16T08:46:22;96559.13;;;15.30;59.48
3697;BME280;60662;48.810;8.872;2024-02-16T08:47:24;96566.97;;;15.58;58.29
3697;BME280;60662;48.810;8.872;2024-02-16T08:48:26;96562.44;;;15.47;59.72
3697;BME280;60662;48.810;8.872;2024-02-16T08:49:27;96549.56;;;15.70;59.04
3697;BME280;60662;48.810;8.872;2024-02-16T08:50:29;96556.91;;;15.64;59.46
3697;BME280;60662;48.810;8.872;2024-02-16T08:51:32;96561.16;;;15.40;59.58
3697;BME280;60662;48.810;8.872;2024-02-16T08:52:34;96545.72;;;15.21;59.17
3697;BME280;60662;48.810;8.872;2024-02-16T08:53:36;96550.34;;;15.44;58.91
3697;BME280;60662;48.810;8.872;2024-02-16T08:54:37;96562.69;;;15.29;59.25
3697;BME280;60662;48.810;8.872;2024-02-16T08:55:39;96562.47;;;15.60;59.23
3697;BME280;60662;48.810;8.872;2024-02-16T08:56:41;96562.47;;;15.32;59.82
3697;BME280;60662;48.810;8.872;2024-02-16T08:57:42;96564.38;;;15.30;59.76
3697;BME280;60662;48.810;8.872;2024-02-16T08:58:44;96563.69;;;15.14;60.60
3697;BME280;60662;48.810;8.872;2024-02-16T08:59:46;96553.06;;;14.88;61.01
3697;BME280;60662;48.810;8.872;2024-02-16T09:00:47;96564.44;;;14.74;61.15
3697;BME280;60662;48.810;8.872;2024-02-16T09:01:51;96565.72;;;14.81;61.63
3697;BME280;60662;48.810;8.872;2024-02-16T09:02:53;96564.44;;;14.74;61.58
3697;BME280;60662;48.810;8.872;2024-02-16T09:03:55;96576.81;;;14.72;61.31
3697;BME280;60662;48.810;8.872;2024-02-16T09:04:58;96567.47;;;14.68;61.49
3697;BME280;60662;48.810;8.872;2024-02-16T09:06:00;96539.16;;;14.86;61.20
3697;BME280;60662;48.810;8.872;2024-02-16T09:07:02;96569.34;;;15.35;60.64
3697;BME280;60662;48.810;8.872;2024-02-16T09:08:04;96566.16;;;15.97;59.52
3697;BME280;60662;48.810;8.872;2024-02-16T09:09:06;96561.81;;;16.35;58.09
3697;BME280;60662;48.810;8.872;2024-02-16T09:10:09;96564.84;;;16.68;57.21
3697;BME280;60662;48.810;8.872;2024-02-16T09:11:10;96550.03;;;16.41;57.40
3697;BME280;60662;48.810;8.872;2024-02-16T09:12:12;96564.88;;;16.16;58.59
3697;BME280;60662;48.810;8.872;2024-02-16T09:13:14;96562.88;;;16.45;58.14
3697;BME280;60662;48.810;8.872;2024-02-16T09:14:15;96561.41;;;16.41;57.50
3697;BME280;60662;48.810;8.872;2024-02-16T09:15:17;96551.09;;;16.38;57.51
3697;BME280;60662;48.810;8.872;2024-02-16T09:16:19;96551.88;;;16.64;57.00
3697;BME280;60662;48.810;8.872;2024-02-16T09:17:24;96550.50;;;16.72;56.51
3697;BME280;60662;48.810;8.872;2024-02-16T09:18:26;96560.06;;;16.98;56.48
3697;BME280;60662;48.810;8.872;2024-02-16T09:19:27;96570.22;;;16.92;56.28
3697;BME280;60662;48.810;8.872;2024-02-16T09:20:29;96575.38;;;16.80;56.52
3697;BME280;60662;48.810;8.872;2024-02-16T09:21:31;96571.41;;;17.36;55.87
3697;BME280;60662;48.810;8.872;2024-02-16T09:22:32;96567.97;;;17.36;55.86
3697;BME280;60662;48.810;8.872;2024-02-16T09:23:39;96574.22;;;18.06;54.09
3697;BME280;60662;48.810;8.872;2024-02-16T09:24:41;96577.41;;;18.34;53.50
3697;BME280;60662;48.810;8.872;2024-02-16T09:25:42;96577.41;;;18.34;53.50
3697;BME280;60662;48.810;8.872;2024-02-16T09:26:45;96577.41;;;18.34;53.50
3697;BME280;60662;48.810;8.872;2024-02-16T09:27:49;96581.72;;;20.64;49.79
3697;BME280;60662;48.810;8.872;2024-02-16T09:28:51;55703.94;;;-145.49;100.00
3697;BME280;60662;48.810;8.872;2024-02-16T09:29:54;55703.94;;;-145.49;100.00
3697;BME280;60662;48.810;8.872;2024-02-16T09:30:57;55703.94;;;-145.49;100.00
3697;BME280;60662;48.810;8.872;2024-02-16T09:31:59;55703.94;;;-145.49;100.00
3697;BME280;60662;48.810;8.872;2024-02-16T09:33:04;55703.94;;;-145.49;100.00
3697;BME280;60662;48.810;8.872;2024-02-16T09:34:06;55703.94;;;-145.49;100.00
3697;BME280;60662;48.810;8.872;2024-02-16T09:35:08;55703.94;;;-145.49;100.00
3697;BME280;60662;48.810;8.872;2024-02-16T09:36:10;55703.94;;;-145.49;100.00
3697;BME280;60662;48.810;8.872;2024-02-16T09:37:12;55703.94;;;-145.49;100.00
3697;BME280;60662;48.810;8.872;2024-02-16T09:38:14;55703.94;;;-145.49;100.00
3697;BME280;60662;48.810;8.872;2024-02-16T09:39:15;55703.94;;;-145.49;100.00
3697;BME280;60662;48.810;8.872;2024-02-16T09:40:17;55703.94;;;-145.49;100.00
3697;BME280;60662;48.810;8.872;2024-02-16T09:41:20;55703.94;;;-145.49;100.00
3697;BME280;60662;48.810;8.872;2024-02-16T09:42:24;55703.94;;;-145.49;100.00
3697;BME280;60662;48.810;8.872;2024-02-16T09:43:29;55703.94;;;-145.49;100.00
3697;BME280;60662;48.810;8.872;2024-02-16T09:44:32;55703.94;;;-145.49;100.00
3697;BME280;60662;48.810;8.872;2024-02-16T09:45:37;55703.94;;;-145.49;100.00
3697;BME280;60662;48.810;8.872;2024-02-16T09:46:38;55703.94;;;-145.49;100.00
3697;BME280;60662;48.810;8.872;2024-02-16T09:47:45;96581.72;;;20.64;49.79
3697;BME280;60662;48.810;8.872;2024-02-16T09:49:02;96608.06;;;19.04;48.65
3697;BME280;60662;48.810;8.872;2024-02-16T09:50:05;96613.94;;;18.40;49.28
3697;BME280;60662;48.810;8.872;2024-02-16T09:51:07;96615.69;;;18.28;50.03
3697;BME280;60662;48.810;8.872;2024-02-16T09:52:10;96608.09;;;17.76;50.91
3697;BME280;60662;48.810;8.872;2024-02-16T09:53:15;96615.03;;;17.53;51.14
3697;BME280;60662;48.810;8.872;2024-02-16T09:54:16;96613.50;;;17.13;52.12
3697;BME280;60662;48.810;8.872;2024-02-16T09:55:18;96618.44;;;16.94;52.75
3697;BME280;60662;48.810;8.872;2024-02-16T09:56:20;96613.84;;;16.83;53.55
3697;BME280;60662;48.810;8.872;2024-02-16T09:57:21;96621.81;;;16.44;54.81
3697;BME280;60662;48.810;8.872;2024-02-16T09:58:23;96619.06;;;16.46;54.77
3697;BME280;60662;48.810;8.872;2024-02-16T09:59:25;96600.72;;;16.19;55.46
3697;BME280;60662;48.810;8.872;2024-02-16T10:00:26;96604.91;;;15.95;56.05
3697;BME280;60662;48.810;8.872;2024-02-16T10:01:28;96607.97;;;16.02;55.32
3697;BME280;60662;48.810;8.872;2024-02-16T10:02:44;96621.00;;;15.91;55.85
3697;BME280;60662;48.810;8.872;2024-02-16T10:03:47;96603.19;;;15.81;56.62
3697;BME280;60662;48.810;8.872;2024-02-16T10:04:49;96622.38;;;15.83;57.47
3697;BME280;60662;48.810;8.872;2024-02-16T10:05:51;96615.09;;;15.60;58.18
3697;BME280;60662;48.810;8.872;2024-02-16T10:06:54;96620.09;;;15.64;57.42
3697;BME280;60662;48.810;8.872;2024-02-16T10:07:56;96618.78;;;15.57;57.44
3697;BME280;60662;48.810;8.872;2024-02-16T10:08:58;96598.91;;;15.39;57.34
3697;BME280;60662;48.810;8.872;2024-02-16T10:10:00;96616.44;;;15.52;57.72
3697;BME280;60662;48.810;8.872;2024-02-16T10:11:05;96615.75;;;15.36;58.02
3697;BME280;60662;48.810;8.872;2024-02-16T10:12:06;96620.47;;;15.58;58.20
3697;BME280;60662;48.810;8.872;2024-02-16T10:13:08;96616.19;;;15.70;58.53
3697;BME280;60662;48.810;8.872;2024-02-16T10:14:10;96624.38;;;15.65;58.42
3697;BME280;60662;48.810;8.872;2024-02-16T10:15:19;96623.41;;;15.54;58.46
3697;BME280;60662;48.810;8.872;2024-02-16T10:16:21;96605.19;;;15.50;58.01
3697;BME280;60662;48.810;8.872;2024-02-16T10:17:22;96627.84;;;15.53;58.08
3697;BME280;60662;48.810;8.872;2024-02-16T10:18:27;96605.41;;;15.60;57.93
3697;BME280;60662;48.810;8.872;2024-02-16T10:19:30;96614.84;;;15.77;57.35
3697;BME280;60662;48.810;8.872;2024-02-16T10:20:44;96615.13;;;15.73;58.43
3697;BME280;60662;48.810;8.872;2024-02-16T10:21:45;96630.75;;;15.76;58.10
3697;BME280;60662;48.810;8.872;2024-02-16T10:22:47;96629.06;;;15.75;57.86
3697;BME280;60662;48.810;8.872;2024-02-16T10:24:00;96623.16;;;15.71;58.01
3697;BME280;60662;48.810;8.872;2024-02-16T10:25:07;96626.06;;;15.66;58.36
3697;BME280;60662;48.810;8.872;2024-02-16T10:26:13;96631.38;;;15.79;58.61
3697;BME280;60662;48.810;8.872;2024-02-16T10:27:15;96625.25;;;15.66;58.64
3697;BME280;60662;48.810;8.872;2024-02-16T10:28:19;96620.66;;;15.55;58.42
3697;BME280;60662;48.810;8.872;2024-02-16T10:29:23;96632.22;;;15.52;57.15
3697;BME280;60662;48.810;8.872;2024-02-16T10:30:30;96635.75;;;15.66;57.02
3697;BME280;60662;48.810;8.872;2024-02-16T10:31:34;96635.94;;;15.63;56.18
3697;BME280;60662;48.810;8.872;2024-02-16T10:32:39;96639.59;;;15.75;56.93
3697;BME280;60662;48.810;8.872;2024-02-16T10:33:41;96628.69;;;15.66;57.25
3697;BME280;60662;48.810;8.872;2024-02-16T10:34:45;96627.97;;;15.64;57.27
3697;BME280;60662;48.810;8.872;2024-02-16T10:35:50;96639.09;;;15.82;57.12
3697;BME280;60662;48.810;8.872;2024-02-16T10:36:53;96638.16;;;15.83;56.99
3697;BME280;60662;48.810;8.872;2024-02-16T10:37:56;96636.06;;;15.61;57.14
3697;BME280;60662;48.810;8.872;2024-02-16T10:39:00;96621.38;;;15.44;57.41
3697;BME280;60662;48.810;8.872;2024-02-16T10:40:07;96627.06;;;15.51;57.41
3697;BME280;60662;48.810;8.872;2024-02-16T10:41:12;96646.47;;;15.63;57.76
3697;BME280;60662;48.810;8.872;2024-02-16T10:42:14;96643.91;;;15.76;57.68
3697;BME280;60662;48.810;8.872;2024-02-16T10:43:17;96637.91;;;15.74;57.34
3697;BME280;60662;48.810;8.872;2024-02-16T10:44:20;96614.47;;;15.56;57.19
3697;BME280;60662;48.810;8.872;2024-02-16T10:45:23;96648.22;;;15.77;58.08
3697;BME280;60662;48.810;8.872;2024-02-16T10:46:26;96646.16;;;15.82;57.77
3697;BME280;60662;48.810;8.872;2024-02-16T10:47:28;96644.75;;;15.76;57.57
3697;BME280;60662;48.810;8.872;2024-02-16T10:48:29;96649.34;;;15.87;57.67
3697;BME280;60662;48.810;8.872;2024-02-16T10:49:31;96645.88;;;15.99;57.42
3697;BME280;60662;48.810;8.872;2024-02-16T10:50:35;96650.69;;;16.33;57.50
3697;BME280;60662;48.810;8.872;2024-02-16T10:51:46;96648.06;;;16.33;58.06
3697;BME280;60662;48.810;8.872;2024-02-16T10:52:53;96650.06;;;16.42;57.95
3697;BME280;60662;48.810;8.872;2024-02-16T10:54:06;96655.22;;;16.57;57.22
3697;BME280;60662;48.810;8.872;2024-02-16T10:55:11;96633.59;;;16.13;58.13
3697;BME280;60662;48.810;8.872;2024-02-16T10:56:16;96640.88;;;15.82;58.92
3697;BME280;60662;48.810;8.872;2024-02-16T10:57:18;96649.19;;;16.29;58.92
3697;BME280;60662;48.810;8.872;2024-02-16T10:58:21;96618.22;;;16.20;59.07
3697;BME280;60662;48.810;8.872;2024-02-16T10:59:26;96614.63;;;16.21;59.23
3697;BME280;60662;48.810;8.872;2024-02-16T11:00:31;96651.22;;;16.51;59.05
3697;BME280;60662;48.810;8.872;2024-02-16T11:01:39;96642.16;;;16.55;58.77
3697;BME280;60662;48.810;8.872;2024-02-16T11:02:55;96622.97;;;16.53;58.94
3697;BME280;60662;48.810;8.872;2024-02-16T11:04:03;96626.97;;;16.59;59.41
3697;BME280;60662;48.810;8.872;2024-02-16T11:05:07;96638.13;;;16.75;59.60
3697;BME280;60662;48.810;8.872;2024-02-16T11:06:17;96633.81;;;16.74;59.42
3697;BME280;60662;48.810;8.872;2024-02-16T11:07:20;96642.75;;;16.85;59.30
3697;BME280;60662;48.810;8.872;2024-02-16T11:08:25;96641.81;;;16.86;59.54
3697;BME280;60662;48.810;8.872;2024-02-16T11:09:39;96645.63;;;16.94;59.23
3697;BME280;60662;48.810;8.872;2024-02-16T11:10:52;96640.22;;;16.83;59.51
3697;BME280;60662;48.810;8.872;2024-02-16T11:11:59;96648.19;;;17.20;58.87
3697;BME280;60662;48.810;8.872;2024-02-16T11:13:04;96635.03;;;17.07;58.82
3697;BME280;60662;48.810;8.872;2024-02-16T11:14:14;96631.03;;;17.14;59.12
3697;BME280;60662;48.810;8.872;2024-02-16T11:15:16;96642.91;;;17.33;58.68
3697;BME280;60662;48.810;8.872;2024-02-16T11:16:28;96642.31;;;17.78;57.62
3697;BME280;60662;48.810;8.872;2024-02-16T11:17:32;96635.31;;;18.01;57.21
3697;BME280;60662;48.810;8.872;2024-02-16T11:18:41;96632.66;;;18.37;56.39
3697;BME280;60662;48.810;8.872;2024-02-16T11:19:49;96627.63;;;18.79;55.50
3697;BME280;60662;48.810;8.872;2024-02-16T11:20:51;96635.22;;;19.40;54.32
3697;BME280;60662;48.810;8.872;2024-02-16T11:22:02;96639.00;;;20.03;53.01
3697;BME280;60662;48.810;8.872;2024-02-16T11:23:08;96631.84;;;20.36;52.92
3697;BME280;60662;48.810;8.872;2024-02-16T11:24:13;96634.97;;;20.09;52.01
3697;BME280;60662;48.810;8.872;2024-02-16T11:25:15;96641.47;;;19.39;53.77
3697;BME280;60662;48.810;8.872;2024-02-16T11:26:17;96633.66;;;19.38;53.79
3697;BME280;60662;48.810;8.872;2024-02-16T11:27:19;96633.44;;;19.07;54.32
3697;BME280;60662;48.810;8.872;2024-02-16T11:28:22;96610.44;;;18.51;56.11
3697;BME280;60662;48.810;8.872;2024-02-16T11:29:25;96638.25;;;18.68;57.47
3697;BME280;60662;48.810;8.872;2024-02-16T11:30:27;96633.13;;;17.95;58.91
3697;BME280;60662;48.810;8.872;2024-02-16T11:31:28;96635.44;;;17.75;59.80
3697;BME280;60662;48.810;8.872;2024-02-16T11:32:32;96636.44;;;17.86;59.42
3697;BME280;60662;48.810;8.872;2024-02-16T11:33:35;96635.97;;;17.56;59.29
3697;BME280;60662;48.810;8.872;2024-02-16T11:34:37;96627.66;;;17.37;60.21
3697;BME280;60662;48.810;8.872;2024-02-16T11:35:39;96633.88;;;17.11;61.15
3697;BME280;60662;48.810;8.872;2024-02-16T11:36:41;96638.91;;;17.52;60.84
3697;BME280;60662;48.810;8.872;2024-02-16T11:37:43;96642.13;;;17.44;61.38
3697;BME280;60662;48.810;8.872;2024-02-16T11:38:46;96639.53;;;17.55;61.09
3697;BME280;60662;48.810;8.872;2024-02-16T11:39:55;96620.19;;;17.30;60.48
3697;BME280;60662;48.810;8.872;2024-02-16T11:40:58;96632.25;;;17.35;60.30
3697;BME280;60662;48.810;8.872;2024-02-16T11:42:05;96628.41;;;17.39;60.47
3697;BME280;60662;48.810;8.872;2024-02-16T11:43:06;96632.56;;;17.54;60.40
3697;BME280;60662;48.810;8.872;2024-02-16T11:44:08;96628.91;;;17.44;60.52
3697;BME280;60662;48.810;8.872;2024-02-16T11:45:11;96633.88;;;17.49;60.55
3697;BME280;60662;48.810;8.872;2024-02-16T11:46:14;96636.56;;;17.60;60.52
3697;BME280;60662;48.810;8.872;2024-02-16T11:47:22;96630.22;;;17.38;60.53
3697;BME280;60662;48.810;8.872;2024-02-16T11:48:30;96638.97;;;17.39;61.13
3697;BME280;60662;48.810;8.872;2024-02-16T11:49:33;96645.63;;;17.32;60.46
3697;BME280;60662;48.810;8.872;2024-02-16T11:50:35;96640.88;;;17.37;60.51
3697;BME280;60662;48.810;8.872;2024-02-16T11:51:36;96636.84;;;17.44;59.93
3697;BME280;60662;48.810;8.872;2024-02-16T11:52:39;96635.66;;;17.48;59.82
3697;BME280;60662;48.810;8.872;2024-02-16T11:53:40;96637.09;;;18.25;57.97
3697;BME280;60662;48.810;8.872;2024-02-16T11:54:45;96638.00;;;18.71;56.96
3697;BME280;60662;48.810;8.872;2024-02-16T11:55:47;96631.25;;;18.44;57.19
3697;BME280;60662;48.810;8.872;2024-02-16T11:56:49;96645.09;;;18.59;57.89
3697;BME280;60662;48.810;8.872;2024-02-16T11:57:54;96624.41;;;18.87;56.75
3697;BME280;60662;48.810;8.872;2024-02-16T11:58:58;96638.56;;;18.40;57.35
3697;BME280;60662;48.810;8.872;2024-02-16T12:00:00;96638.56;;;18.52;57.71
3697;BME280;60662;48.810;8.872;2024-02-16T12:01:10;96642.91;;;18.53;57.81
3697;BME280;60662;48.810;8.872;2024-02-16T12:02:17;96633.16;;;18.42;57.67
3697;BME280;60662;48.810;8.872;2024-02-16T12:03:23;96635.22;;;18.84;56.91
3697;BME280;60662;48.810;8.872;2024-02-16T12:04:27;96643.28;;;18.71;57.50
3697;BME280;60662;48.810;8.872;2024-02-16T12:05:29;96638.84;;;18.13;58.33
3697;BME280;60662;48.810;8.872;2024-02-16T12:06:31;96635.25;;;17.90;59.13
3697;BME280;60662;48.810;8.872;2024-02-16T12:07:36;96624.19;;;17.85;59.92
3697;BME280;60662;48.810;8.872;2024-02-16T12:08:38;96637.97;;;18.01;60.10
3697;BME280;60662;48.810;8.872;2024-02-16T12:09:40;96630.31;;;17.61;60.53
3697;BME280;60662;48.810;8.872;2024-02-16T12:10:42;96637.66;;;17.57;60.98
3697;BME280;60662;48.810;8.872;2024-02-16T12:11:44;96634.50;;;17.52;61.24
3697;BME280;60662;48.810;8.872;2024-02-16T12:12:47;96639.16;;;17.49;61.81
3697;BME280;60662;48.810;8.872;2024-02-16T12:13:49;96640.78;;;17.25;61.93
3697;BME280;60662;48.810;8.872;2024-02-16T12:14:52;96648.88;;;17.11;62.12
3697;BME280;60662;48.810;8.872;2024-02-16T12:15:54;96642.75;;;16.85;63.29
3697;BME280;60662;48.810;8.872;2024-02-16T12:16:59;96636.53;;;16.86;64.01
3697;BME280;60662;48.810;8.872;2024-02-16T12:18:01;96648.38;;;16.93;64.20
3697;BME280;60662;48.810;8.872;2024-02-16T12:19:04;96647.44;;;16.94;63.85
3697;BME280;60662;48.810;8.872;2024-02-16T12:20:15;96639.41;;;16.70;64.06
3697;BME280;60662;48.810;8.872;2024-02-16T12:21:18;96643.00;;;16.69;64.51
3697;BME280;60662;48.810;8.872;2024-02-16T12:22:21;96650.03;;;16.81;64.42
3697;BME280;60662;48.810;8.872;2024-02-16T12:23:23;96653.66;;;16.80;64.40
3697;BME280;60662;48.810;8.872;2024-02-16T12:24:25;96638.34;;;16.72;64.23
3697;BME280;60662;48.810;8.872;2024-02-16T12:25:27;96642.97;;;16.81;64.50
3697;BME280;60662;48.810;8.872;2024-02-16T12:26:28;96648.03;;;16.72;64.46
3697;BME280;60662;48.810;8.872;2024-02-16T12:27:29;96652.38;;;16.73;64.83
3697;BME280;60662;48.810;8.872;2024-02-16T12:28:31;96650.47;;;16.88;64.60
3697;BME280;60662;48.810;8.872;2024-02-16T12:29:38;96652.47;;;16.97;63.97
3697;BME280;60662;48.810;8.872;2024-02-16T12:30:40;96655.75;;;17.01;63.84
3697;BME280;60662;48.810;8.872;2024-02-16T12:31:43;96649.72;;;16.86;63.40
3697;BME280;60662;48.810;8.872;2024-02-16T12:32:45;96654.47;;;16.93;63.90
3697;BME280;60662;48.810;8.872;2024-02-16T12:33:47;96635.91;;;16.82;63.66
3697;BME280;60662;48.810;8.872;2024-02-16T12:34:49;96655.88;;;16.99;63.67
3697;BME280;60662;48.810;8.872;2024-02-16T12:35:51;96646.56;;;16.93;63.15
3697;BME280;60662;48.810;8.872;2024-02-16T12:36:53;96646.25;;;16.98;62.99
3697;BME280;60662;48.810;8.872;2024-02-16T12:37:57;96650.03;;;17.07;62.99
3697;BME280;60662;48.810;8.872;2024-02-16T12:38:59;96652.09;;;17.27;62.87
3697;BME280;60662;48.810;8.872;2024-02-16T12:40:01;96642.25;;;17.05;62.71
3697;BME280;60662;48.810;8.872;2024-02-16T12:41:02;96651.28;;;17.14;62.70
3697;BME280;60662;48.810;8.872;2024-02-16T12:42:04;96647.88;;;17.25;62.61
3697;BME280;60662;48.810;8.872;2024-02-16T12:43:06;96653.72;;;17.17;62.42
3697;BME280;60662;48.810;8.872;2024-02-16T12:44:10;96640.94;;;17.11;62.70
3697;BME280;60662;48.810;8.872;2024-02-16T12:45:11;96660.56;;;17.20;62.96
3697;BME280;60662;48.810;8.872;2024-02-16T12:46:13;96647.13;;;17.36;63.02
3697;BME280;60662;48.810;8.872;2024-02-16T12:47:15;96650.03;;;17.68;62.45
3697;BME280;60662;48.810;8.872;2024-02-16T12:48:16;96651.06;;;17.78;62.22
3697;BME280;60662;48.810;8.872;2024-02-16T12:49:19;96652.47;;;17.71;62.28
3697;BME280;60662;48.810;8.872;2024-02-16T12:50:23;96653.75;;;17.66;62.31
3697;BME280;60662;48.810;8.872;2024-02-16T12:51:25;96648.03;;;17.48;62.27
3697;BME280;60662;48.810;8.872;2024-02-16T12:52:26;96656.22;;;17.19;62.76
3697;BME280;60662;48.810;8.872;2024-02-16T12:53:28;96646.00;;;17.14;63.04
3697;BME280;60662;48.810;8.872;2024-02-16T12:54:32;96647.56;;;17.29;63.19
3697;BME280;60662;48.810;8.872;2024-02-16T12:55:34;96652.06;;;17.40;63.06
3697;BME280;60662;48.810;8.872;2024-02-16T12:56:37;96646.84;;;17.52;63.18
3697;BME280;60662;48.810;8.872;2024-02-16T12:57:41;96649.78;;;17.23;63.01
3697;BME280;60662;48.810;8.872;2024-02-16T12:58:43;96651.34;;;17.25;63.15
3697;BME280;60662;48.810;8.872;2024-02-16T12:59:44;96651.47;;;17.24;63.43
3697;BME280;60662;48.810;8.872;2024-02-16T13:00:46;96650.84;;;17.33;63.18
3697;BME280;60662;48.810;8.872;2024-02-16T13:01:47;96656.72;;;17.37;63.24
3697;BME280;60662;48.810;8.872;2024-02-16T13:02:49;96642.94;;;17.44;63.00
3697;BME280;60662;48.810;8.872;2024-02-16T13:03:51;96638.06;;;17.27;62.24
3697;BME280;60662;48.810;8.872;2024-02-16T13:04:52;96642.34;;;17.04;62.88
3697;BME280;60662;48.810;8.872;2024-02-16T13:05:55;96649.72;;;16.98;63.52
3697;BME280;60662;48.810;8.872;2024-02-16T13:06:58;96654.53;;;17.18;63.30
3697;BME280;60662;48.810;8.872;2024-02-16T13:08:00;96643.00;;;17.32;62.92
3697;BME280;60662;48.810;8.872;2024-02-16T13:09:01;96657.06;;;17.32;62.76
3697;BME280;60662;48.810;8.872;2024-02-16T13:10:04;96650.97;;;17.19;62.64
3697;BME280;60662;48.810;8.872;2024-02-16T13:11:05;96649.50;;;17.14;62.82
3697;BME280;60662;48.810;8.872;2024-02-16T13:12:07;96656.69;;;17.00;63.19